Time;durP1;ratioP1;P1;durP2;ratioP2;P2;SDS_P1;SDS_P2;PMS_P1;PMS_P2;Temp;Humidity;BMP_temperature;BMP_pressure;BME280_temperature;BME280_humidity;BME280_pressure;Samples;Min_cycle;Max_cycle;Signal;HPM_P1;HPM_P2
2022/07/14 20:08:43;;;;;;;3.67;1.63;;;22.10;59.30;;;;;;6202140;23;20428;-80
2022/07/14 20:11:12;;;;;;;2.50;2.30;;;22.10;59.50;;;;;;6217432;23;20458;-81
2022/07/14 20:13:39;;;;;;;4.43;2.73;;;22.10;59.60;;;;;;6221027;23;20446;-82
2022/07/14 20:16:07;;;;;;;3.67;2.47;;;22.10;59.80;;;;;;6219231;23;20488;-81
2022/07/14 20:18:37;;;;;;;9.23;2.60;;;22.10;60.10;;;;;;6219806;23;20498;-82
2022/07/14 20:21:04;;;;;;;2.60;1.83;;;22.10;60.20;;;;;;6218900;23;20432;-81
2022/07/14 20:23:31;;;;;;;3.47;1.50;;;22.00;60.50;;;;;;6218057;23;20441;-77
2022/07/14 20:26:00;;;;;;;3.57;1.70;;;22.00;60.90;;;;;;6212461;23;20494;-78
2022/07/14 20:33:59;;;;;;;1.83;1.63;;;21.90;61.50;;;;;;6221573;23;20437;-80
2022/07/14 20:36:27;;;;;;;4.40;2.33;;;21.90;61.60;;;;;;6220658;23;20438;-81
2022/07/14 20:38:54;;;;;;;2.70;2.50;;;21.80;61.90;;;;;;6221585;23;20919;-82
2022/07/14 20:41:23;;;;;;;3.60;2.40;;;21.80;61.90;;;;;;6219626;23;20437;-81
2022/07/14 20:43:50;;;;;;;4.00;1.80;;;21.70;61.70;;;;;;6220811;23;20446;-81
2022/07/14 20:49:01;;;;;;;2.50;1.87;;;21.70;61.20;;;;;;6220240;23;20437;-75
2022/07/14 20:51:29;;;;;;;2.37;2.17;;;21.60;61.20;;;;;;6222326;23;20447;-77
2022/07/14 20:53:56;;;;;;;2.63;1.53;;;21.60;61.30;;;;;;6228635;23;20438;-75
2022/07/14 20:56:24;;;;;;;4.10;1.60;;;21.60;61.30;;;;;;6227949;23;20481;-76
2022/07/14 20:58:52;;;;;;;4.93;1.70;;;21.50;61.60;;;;;;6227747;23;20436;-81
2022/07/14 21:01:19;;;;;;;3.30;1.77;;;21.50;62.40;;;;;;6226098;23;20436;-75
2022/07/14 21:03:49;;;;;;;2.77;1.40;;;21.50;63.00;;;;;;6230312;23;20473;-76
2022/07/14 21:06:17;;;;;;;3.93;1.83;;;21.40;63.40;;;;;;6232394;23;20440;-76
2022/07/14 21:08:44;;;;;;;5.67;2.90;;;21.30;63.90;;;;;;6232211;23;20467;-76
2022/07/14 21:11:13;;;;;;;3.17;2.00;;;21.20;64.10;;;;;;6229790;23;20904;-76
2022/07/14 21:13:41;;;;;;;3.57;2.00;;;21.10;64.40;;;;;;6231842;23;20435;-76
2022/07/14 21:16:08;;;;;;;3.90;3.03;;;21.10;64.70;;;;;;6230299;23;20505;-81
2022/07/14 21:18:36;;;;;;;3.10;1.60;;;21.00;65.00;;;;;;6227992;23;20432;-81
2022/07/14 21:21:04;;;;;;;1.70;1.57;;;21.00;65.00;;;;;;6210581;23;20491;-81
2022/07/14 21:23:31;;;;;;;4.17;2.20;;;20.90;65.20;;;;;;6231831;23;20435;-79
2022/07/14 21:25:59;;;;;;;3.27;2.30;;;20.90;65.30;;;;;;6233837;23;20441;-81
2022/07/14 21:28:26;;;;;;;8.13;4.00;;;20.80;65.60;;;;;;6235644;23;20450;-82
2022/07/14 21:30:54;;;;;;;4.60;2.80;;;20.80;65.90;;;;;;6236974;23;20427;-82
2022/07/14 21:33:23;;;;;;;2.53;1.73;;;20.70;66.10;;;;;;6230431;23;20459;-83
2022/07/14 21:35:53;;;;;;;3.30;1.70;;;20.70;66.30;;;;;;6233743;23;20520;-82
2022/07/14 21:38:22;;;;;;;5.53;2.70;;;20.60;66.60;;;;;;6224713;23;20443;-80
2022/07/14 21:40:49;;;;;;;4.10;2.20;;;20.50;66.70;;;;;;6224914;23;20450;-82
2022/07/14 21:43:17;;;;;;;3.40;2.50;;;20.40;66.90;;;;;;6222274;23;20460;-80
2022/07/14 21:45:44;;;;;;;1.73;1.63;;;20.40;67.10;;;;;;6222308;23;20811;-82
2022/07/14 21:48:12;;;;;;;1.67;1.57;;;20.30;67.40;;;;;;6224826;23;20431;-82
2022/07/14 21:50:40;;;;;;;2.17;1.87;;;20.30;67.60;;;;;;6222326;23;21157;-82
2022/07/14 21:53:09;;;;;;;3.20;1.43;;;20.30;67.50;;;;;;6207264;23;20442;-81
2022/07/14 21:55:36;;;;;;;4.43;1.83;;;20.30;67.50;;;;;;6229001;23;20439;-82
2022/07/14 21:58:06;;;;;;;1.67;1.40;;;20.20;67.70;;;;;;6220575;23;20436;-83
2022/07/14 22:00:33;;;;;;;2.70;1.43;;;20.20;67.80;;;;;;6221032;23;20436;-82
2022/07/14 22:03:00;;;;;;;5.67;2.20;;;20.20;68.20;;;;;;6220676;23;20435;-81
2022/07/14 22:05:29;;;;;;;2.40;1.80;;;20.10;68.40;;;;;;6218485;23;20466;-81
2022/07/14 22:07:57;;;;;;;2.03;1.60;;;20.00;68.50;;;;;;6219055;23;20514;-83
2022/07/14 22:10:29;;;;;;;2.77;1.73;;;20.00;68.80;;;;;;6217794;23;20441;-81
2022/07/14 22:12:56;;;;;;;2.80;1.87;;;20.00;69.00;;;;;;6220670;23;20488;-82
2022/07/14 22:15:28;;;;;;;3.27;2.27;;;19.90;69.40;;;;;;6219993;23;20432;-80
2022/07/14 22:17:56;;;;;;;4.87;2.57;;;19.90;69.60;;;;;;6220972;23;20459;-83
2022/07/14 22:20:23;;;;;;;4.03;3.43;;;19.90;69.90;;;;;;6218117;23;20435;-77
2022/07/14 22:22:56;;;;;;;2.77;2.10;;;19.90;70.10;;;;;;6219789;23;20432;-83
2022/07/14 22:25:23;;;;;;;4.93;1.90;;;19.90;70.10;;;;;;6220299;23;20435;-80
2022/07/14 22:27:51;;;;;;;2.37;1.70;;;19.80;70.00;;;;;;6219891;23;20724;-75
2022/07/14 22:30:18;;;;;;;1.60;1.33;;;19.80;70.30;;;;;;6219721;23;20601;-75
2022/07/14 22:32:47;;;;;;;3.67;1.63;;;19.80;70.30;;;;;;6218510;23;20470;-75
2022/07/14 22:35:15;;;;;;;4.80;2.00;;;19.80;70.30;;;;;;6221286;23;20442;-83
2022/07/14 22:37:42;;;;;;;3.53;1.40;;;19.80;70.40;;;;;;6225508;23;20491;-83
2022/07/14 22:40:11;;;;;;;3.07;2.20;;;19.80;70.50;;;;;;6219470;23;20490;-76
2022/07/14 22:42:54;;;;;;;3.20;2.00;;;19.70;70.60;;;;;;6217704;23;20436;-77
2022/07/14 22:45:40;;;;;;;6.60;3.70;;;19.70;70.60;;;;;;6218980;23;20459;-77
2022/07/14 22:48:08;;;;;;;4.90;2.30;;;19.70;70.80;;;;;;6202073;23;20931;-76
2022/07/14 22:50:35;;;;;;;3.20;2.10;;;19.70;71.50;;;;;;6214588;23;20420;-76
2022/07/14 22:53:02;;;;;;;2.77;2.47;;;19.60;71.30;;;;;;6203964;23;20491;-76
2022/07/14 22:55:31;;;;;;;3.27;2.40;;;19.60;71.60;;;;;;6215862;23;20991;-76
2022/07/14 22:57:58;;;;;;;1.87;1.50;;;19.60;71.70;;;;;;6217523;23;20432;-76
2022/07/14 23:00:25;;;;;;;1.83;1.37;;;19.60;71.90;;;;;;6217636;23;20915;-76
2022/07/14 23:02:52;;;;;;;2.80;1.50;;;19.60;72.10;;;;;;6215906;23;20431;-76
2022/07/14 23:05:23;;;;;;;3.60;1.47;;;19.50;72.30;;;;;;6186335;23;20747;-74
2022/07/14 23:07:50;;;;;;;2.87;1.37;;;19.50;72.40;;;;;;6221004;23;20491;-82
2022/07/14 23:10:21;;;;;;;1.50;1.07;;;19.50;72.60;;;;;;6227306;23;20466;-81
2022/07/14 23:13:00;;;;;;;4.70;1.50;;;19.50;72.90;;;;;;6226135;23;20431;-81
2022/07/14 23:15:35;;;;;;;1.27;1.10;;;19.50;73.00;;;;;;6210434;23;20463;-81
2022/07/14 23:18:07;;;;;;;4.33;1.70;;;19.40;73.30;;;;;;6218615;23;20431;-82
2022/07/14 23:20:36;;;;;;;4.67;1.13;;;19.40;73.70;;;;;;6200590;23;20445;-78
2022/07/14 23:23:04;;;;;;;12.00;6.00;;;19.30;73.90;;;;;;6217041;23;20432;-77
2022/07/14 23:25:36;;;;;;;7.43;4.47;;;19.30;74.20;;;;;;6216130;23;20432;-81
2022/07/14 23:28:06;;;;;;;3.67;2.73;;;19.30;74.70;;;;;;6207553;23;20538;-76
2022/07/14 23:30:36;;;;;;;5.57;1.87;;;19.20;74.90;;;;;;6219321;23;20451;-81
2022/07/14 23:33:04;;;;;;;3.03;2.73;;;19.20;75.20;;;;;;6220007;23;20424;-77
2022/07/14 23:35:34;;;;;;;3.20;2.43;;;19.20;75.40;;;;;;6218280;23;20508;-76
2022/07/14 23:38:04;;;;;;;2.60;2.40;;;19.20;75.60;;;;;;6217237;23;20432;-76
2022/07/14 23:40:31;;;;;;;2.60;1.80;;;19.10;75.60;;;;;;6218315;23;20443;-77
2022/07/14 23:42:58;;;;;;;2.70;1.60;;;19.10;75.90;;;;;;6216112;23;20891;-76
2022/07/14 23:45:27;;;;;;;5.97;1.97;;;19.10;76.10;;;;;;6217757;23;20428;-77
2022/07/14 23:48:15;;;;;;;3.53;2.00;;;19.10;76.30;;;;;;6203345;23;20435;-77
2022/07/14 23:50:43;;;;;;;3.03;1.60;;;19.10;76.50;;;;;;6207594;23;20442;-77
2022/07/14 23:53:12;;;;;;;1.47;1.37;;;19.10;76.90;;;;;;6205540;23;20509;-76
2022/07/14 23:55:39;;;;;;;3.10;1.67;;;19.00;77.10;;;;;;6216771;23;20440;-75
2022/07/14 23:58:12;;;;;;;3.00;1.80;;;19.00;77.30;;;;;;6218469;23;20440;-76
